Time;durP1;ratioP1;P1;durP2;ratioP2;P2;SDS_P1;SDS_P2;PMS_P1;PMS_P2;Temp;Humidity;BMP_temperature;BMP_pressure;BME280_temperature;BME280_humidity;BME280_pressure;Samples;Min_cycle;Max_cycle;Signal;HPM_P1;HPM_P2
2021/12/20 00:00:22;;;;;;;2.17;1.17;;;;;;;6.62;100.00;99880.38;5100341;28;20211;-84
2021/12/20 00:02:55;;;;;;;5.53;1.47;;;;;;;6.68;100.00;99880.16;5095987;28;20188;-84
2021/12/20 00:05:24;;;;;;;4.03;1.20;;;;;;;6.75;100.00;99868.47;5057204;28;20205;-83
2021/12/20 00:07:54;;;;;;;3.13;1.23;;;;;;;6.61;100.00;99868.97;5053525;28;20194;-84
2021/12/20 00:10:23;;;;;;;5.37;1.30;;;;;;;6.65;100.00;99859.19;5057245;28;20205;-83
2021/12/20 00:12:52;;;;;;;4.80;1.13;;;;;;;6.56;100.00;99866.53;5052774;28;20363;-84
2021/12/20 00:15:21;;;;;;;4.47;1.23;;;;;;;6.58;100.00;99859.44;4996200;28;20239;-84
2021/12/20 00:17:49;;;;;;;2.87;1.00;;;;;;;6.58;100.00;99858.56;4979467;28;20204;-83
2021/12/20 00:20:20;;;;;;;4.47;1.13;;;;;;;6.54;100.00;99857.81;4979646;28;20223;-84
2021/12/20 00:22:50;;;;;;;6.70;1.43;;;;;;;6.55;100.00;99850.75;4981667;28;20203;-84
2021/12/20 00:25:20;;;;;;;1.63;0.97;;;;;;;6.50;100.00;99845.69;5010651;28;20206;-83
2021/12/20 00:27:48;;;;;;;4.03;1.40;;;;;;;6.45;100.00;99849.38;5016162;28;20194;-84
2021/12/20 00:30:17;;;;;;;4.27;1.33;;;;;;;6.42;100.00;99853.00;5018455;28;20194;-84
2021/12/20 00:32:47;;;;;;;3.70;1.27;;;;;;;6.30;100.00;99849.03;5027882;28;20232;-84
2021/12/20 00:35:18;;;;;;;5.13;1.40;;;;;;;6.35;100.00;99855.88;5058988;28;20188;-83
2021/12/20 00:40:37;;;;;;;3.93;1.30;;;;;;;6.36;100.00;99861.09;5071462;28;20215;-84
2021/12/20 00:43:05;;;;;;;2.40;1.30;;;;;;;6.38;100.00;99854.03;5097051;28;20275;-83
2021/12/20 00:45:38;;;;;;;3.30;1.40;;;;;;;6.35;100.00;99853.25;5101051;28;20251;-84
2021/12/20 00:48:07;;;;;;;3.97;1.47;;;;;;;6.37;100.00;99851.44;5100858;27;20196;-84
2021/12/20 00:50:39;;;;;;;5.97;1.30;;;;;;;6.30;100.00;99866.59;5090018;28;20203;-83
2021/12/20 00:53:07;;;;;;;5.43;1.57;;;;;;;6.37;100.00;99861.94;5087539;28;20196;-84
2021/12/20 00:55:37;;;;;;;3.77;1.33;;;;;;;6.40;100.00;99870.63;5092375;28;20200;-84
2021/12/20 00:58:07;;;;;;;5.50;1.60;;;;;;;6.37;100.00;99875.09;5093866;28;20188;-84
2021/12/20 01:00:38;;;;;;;3.43;1.50;;;;;;;6.42;100.00;99870.56;5095551;28;20223;-84
2021/12/20 01:03:08;;;;;;;5.70;1.43;;;;;;;6.36;100.00;99869.00;5094520;28;20192;-84
2021/12/20 01:05:38;;;;;;;2.33;1.40;;;;;;;6.31;100.00;99873.56;5093213;28;20227;-84
2021/12/20 01:08:07;;;;;;;6.63;1.53;;;;;;;6.22;100.00;99876.53;5094550;28;20210;-83
2021/12/20 01:10:41;;;;;;;6.90;1.47;;;;;;;6.15;100.00;99875.00;5085618;28;20204;-84
2021/12/20 01:13:09;;;;;;;6.33;1.40;;;;;;;5.98;100.00;99872.94;5094253;28;20261;-84
2021/12/20 01:15:43;;;;;;;6.80;1.63;;;;;;;6.07;100.00;99879.66;5095135;28;20207;-83
2021/12/20 01:18:12;;;;;;;4.60;1.53;;;;;;;6.00;100.00;99884.28;5090390;28;20256;-84
2021/12/20 01:20:42;;;;;;;3.27;1.30;;;;;;;5.93;100.00;99883.63;5096172;28;20219;-83
2021/12/20 01:23:12;;;;;;;3.10;1.40;;;;;;;5.95;100.00;99891.47;5094239;28;20658;-83
2021/12/20 01:25:42;;;;;;;5.03;1.37;;;;;;;5.91;100.00;99888.09;5089882;28;20200;-83
2021/12/20 01:28:11;;;;;;;7.30;1.93;;;;;;;5.79;100.00;99885.84;5095240;28;20203;-83
2021/12/20 01:30:40;;;;;;;4.50;1.27;;;;;;;5.73;100.00;99881.63;5092421;28;20200;-83
2021/12/20 01:33:11;;;;;;;5.27;1.60;;;;;;;5.73;100.00;99886.03;5095186;28;20222;-83
2021/12/20 01:35:41;;;;;;;5.90;1.67;;;;;;;5.63;100.00;99889.84;5089608;28;20202;-83
2021/12/20 01:38:10;;;;;;;6.60;1.57;;;;;;;5.59;100.00;99891.69;5093858;28;20254;-83
2021/12/20 01:40:39;;;;;;;4.80;1.30;;;;;;;5.66;100.00;99889.75;5095263;28;20219;-82
2021/12/20 01:43:12;;;;;;;5.17;1.67;;;;;;;5.52;100.00;99892.81;5091800;28;20223;-83
2021/12/20 01:45:40;;;;;;;9.87;1.93;;;;;;;5.60;100.00;99889.97;5095274;28;20203;-84
2021/12/20 01:48:11;;;;;;;6.37;1.50;;;;;;;5.54;100.00;99887.53;5090220;28;20190;-83
2021/12/20 01:51:17;;;;;;;8.53;1.80;;;;;;;5.59;100.00;99893.47;5091287;28;20473;-83
2021/12/20 01:53:46;;;;;;;5.07;1.57;;;;;;;5.54;100.00;99898.88;5094811;28;20190;-84
2021/12/20 01:56:14;;;;;;;6.27;1.57;;;;;;;5.45;100.00;99902.66;5088665;28;20191;-83
2021/12/20 01:58:44;;;;;;;6.93;1.43;;;;;;;5.39;100.00;99910.72;5094745;28;20191;-83
2021/12/20 02:01:25;;;;;;;8.17;1.60;;;;;;;5.37;100.00;99909.91;5088536;28;20215;-83
2021/12/20 02:03:59;;;;;;;6.87;1.87;;;;;;;5.45;100.00;99907.91;5059580;28;20191;-83
2021/12/20 02:06:34;;;;;;;6.83;1.63;;;;;;;5.52;100.00;99907.75;5093314;28;20704;-83
2021/12/20 02:09:07;;;;;;;7.00;1.90;;;;;;;5.53;100.00;99915.56;5094499;28;20203;-84
2021/12/20 02:11:36;;;;;;;10.67;2.10;;;;;;;5.59;100.00;99912.72;5094791;28;20187;-84
2021/12/20 02:14:08;;;;;;;13.67;2.13;;;;;;;5.56;100.00;99917.22;5089747;28;20199;-83
2021/12/20 02:16:38;;;;;;;8.73;1.90;;;;;;;5.58;100.00;99916.25;5097746;28;20195;-83
2021/12/20 02:19:10;;;;;;;9.23;1.80;;;;;;;5.56;100.00;99911.97;5107866;28;20200;-83
2021/12/20 02:21:41;;;;;;;8.77;2.00;;;;;;;5.54;100.00;99912.03;5090726;28;20227;-83
2021/12/20 02:24:09;;;;;;;8.37;2.23;;;;;;;5.60;100.00;99905.72;5096708;27;20253;-83
2021/12/20 02:26:39;;;;;;;9.73;2.60;;;;;;;5.50;100.00;99910.41;5092911;28;20264;-83
2021/12/20 02:29:09;;;;;;;12.57;2.83;;;;;;;5.46;100.00;99909.63;5094337;28;20650;-84
2021/12/20 02:37:30;;;;;;;10.00;2.60;;;;;;;5.35;100.00;99917.00;5050632;28;20197;-83
2021/12/20 02:39:59;;;;;;;12.00;2.50;;;;;;;5.42;100.00;99909.78;5049842;28;20221;-83
2021/12/20 02:42:33;;;;;;;10.83;2.73;;;;;;;5.35;100.00;99913.50;5049358;28;20278;-83
2021/12/20 02:45:10;;;;;;;11.67;2.60;;;;;;;5.38;100.00;99913.41;5047032;28;20241;-85
2021/12/20 02:47:43;;;;;;;11.27;2.90;;;;;;;5.27;100.00;99902.38;5046730;28;20216;-83
2021/12/20 02:50:13;;;;;;;10.73;3.00;;;;;;;5.24;100.00;99900.69;5086376;28;20195;-83
2021/12/20 02:52:43;;;;;;;7.43;2.60;;;;;;;5.24;100.00;99902.47;5091837;28;20203;-83
2021/12/20 02:55:12;;;;;;;8.40;2.93;;;;;;;5.21;100.00;99910.41;5092138;28;20191;-83
2021/12/20 02:57:41;;;;;;;15.60;3.40;;;;;;;5.14;100.00;99910.63;5089852;28;20230;-83
2021/12/20 03:00:11;;;;;;;10.90;2.80;;;;;;;5.14;100.00;99913.25;5093827;28;20256;-83
2021/12/20 03:02:40;;;;;;;9.73;3.10;;;;;;;5.14;100.00;99909.75;5091111;28;20673;-84
2021/12/20 03:05:11;;;;;;;7.90;2.27;;;;;;;5.19;100.00;99920.97;5093800;28;20682;-83
2021/12/20 03:07:45;;;;;;;16.87;2.87;;;;;;;5.19;100.00;99918.34;5089888;28;20249;-83
2021/12/20 03:10:21;;;;;;;9.77;2.73;;;;;;;5.12;100.00;99904.56;5071083;28;20465;-84
2021/12/20 03:12:55;;;;;;;14.40;3.30;;;;;;;5.27;100.00;99911.09;5069167;28;20188;-84
2021/12/20 03:15:26;;;;;;;6.23;2.70;;;;;;;5.26;100.00;99911.16;5068837;28;20200;-83
2021/12/20 03:17:55;;;;;;;12.47;3.30;;;;;;;5.37;100.00;99914.31;4990087;28;20238;-83
2021/12/20 03:20:24;;;;;;;13.03;2.90;;;;;;;5.43;100.00;99912.38;4996000;28;20756;-84
2021/12/20 03:22:53;;;;;;;11.90;2.97;;;;;;;5.50;100.00;99920.03;4993716;28;20202;-83
2021/12/20 03:25:25;;;;;;;11.10;2.63;;;;;;;5.51;100.00;99927.91;4996281;28;20218;-83
2021/12/20 03:27:53;;;;;;;16.40;4.07;;;;;;;5.34;100.00;99923.16;5006165;28;20202;-83
2021/12/20 03:30:25;;;;;;;12.27;3.20;;;;;;;5.36;100.00;99923.09;5029517;28;20193;-84
2021/12/20 03:32:53;;;;;;;12.67;2.87;;;;;;;5.41;100.00;99923.84;5030367;28;20193;-84
2021/12/20 03:35:22;;;;;;;14.20;3.10;;;;;;;5.41;100.00;99926.47;5043829;28;20253;-84
2021/12/20 03:37:50;;;;;;;8.73;3.50;;;;;;;5.31;100.00;99932.91;5098710;27;20223;-83
2021/12/20 03:40:20;;;;;;;13.60;3.10;;;;;;;5.31;100.00;99936.38;5090108;28;20223;-83
2021/12/20 03:42:49;;;;;;;15.47;3.37;;;;;;;5.36;100.00;99923.97;5095951;28;20202;-84
2021/12/20 03:45:18;;;;;;;9.00;2.90;;;;;;;5.37;100.00;99928.31;5094458;28;20203;-84
2021/12/20 03:47:46;;;;;;;13.20;2.70;;;;;;;5.28;100.00;99933.84;5095385;28;20219;-83
2021/12/20 03:50:16;;;;;;;12.50;2.97;;;;;;;5.32;100.00;99930.22;5097459;28;20300;-84
2021/12/20 03:52:44;;;;;;;10.80;3.00;;;;;;;5.18;100.00;99941.13;5095895;28;20195;-84
2021/12/20 03:55:15;;;;;;;16.47;3.13;;;;;;;5.01;100.00;99938.13;5097063;28;20252;-83
2021/12/20 03:57:43;;;;;;;15.83;3.30;;;;;;;4.83;100.00;99941.31;5097174;28;20191;-84
2021/12/20 04:00:21;;;;;;;18.70;3.20;;;;;;;4.80;100.00;99933.50;5093705;28;20279;-84
2021/12/20 04:02:49;;;;;;;10.83;2.80;;;;;;;4.72;100.00;99940.72;5093354;28;20194;-84
2021/12/20 04:05:19;;;;;;;12.67;3.00;;;;;;;4.57;100.00;99929.75;5097105;28;20192;-83
2021/12/20 04:07:47;;;;;;;16.07;3.10;;;;;;;4.63;100.00;99927.84;5095618;28;20184;-84
2021/12/20 04:10:16;;;;;;;13.30;2.80;;;;;;;4.67;100.00;99943.47;5096283;28;20199;-84
2021/12/20 04:12:45;;;;;;;17.37;2.93;;;;;;;4.72;100.00;99940.72;5096495;28;20200;-84
2021/12/20 04:15:16;;;;;;;14.10;2.90;;;;;;;4.74;100.00;99947.66;5096423;28;20245;-84
2021/12/20 04:17:44;;;;;;;17.13;3.07;;;;;;;4.67;100.00;99945.25;5095237;28;20229;-84
2021/12/20 04:20:13;;;;;;;16.00;3.13;;;;;;;4.53;100.00;99937.72;5094823;28;20204;-84
2021/12/20 04:22:42;;;;;;;10.37;2.70;;;;;;;4.55;100.00;99943.81;5095046;28;20216;-84
2021/12/20 04:25:10;;;;;;;11.90;3.03;;;;;;;4.57;100.00;99948.09;5094336;28;20208;-84
2021/12/20 04:27:39;;;;;;;9.80;2.67;;;;;;;4.55;100.00;99947.28;5054211;28;20196;-84
2021/12/20 04:30:10;;;;;;;12.63;3.10;;;;;;;4.47;100.00;99949.25;5054299;28;20193;-84
2021/12/20 04:32:43;;;;;;;15.30;3.00;;;;;;;4.41;100.00;99949.41;5003188;28;20199;-84
2021/12/20 04:35:15;;;;;;;14.23;2.90;;;;;;;4.33;100.00;99956.59;5051813;28;20279;-84
2021/12/20 04:37:47;;;;;;;14.27;3.00;;;;;;;4.32;100.00;99953.13;5050297;28;20201;-84
2021/12/20 04:40:19;;;;;;;12.07;3.23;;;;;;;4.37;100.00;99960.03;5051323;28;20278;-84
2021/12/20 04:42:51;;;;;;;14.77;2.90;;;;;;;4.29;100.00;99961.09;5051246;28;20213;-85
2021/12/20 04:45:20;;;;;;;13.83;3.23;;;;;;;4.23;100.00;99963.00;5063889;28;20252;-84
2021/12/20 04:47:50;;;;;;;19.30;3.53;;;;;;;4.25;100.00;99963.84;5095365;28;20241;-84
2021/12/20 04:50:22;;;;;;;15.97;2.87;;;;;;;4.25;100.00;99959.44;5094449;28;20234;-84
2021/12/20 04:52:51;;;;;;;8.40;2.33;;;;;;;4.18;100.00;99965.75;5094925;28;20212;-84
2021/12/20 04:55:19;;;;;;;23.03;3.37;;;;;;;4.10;100.00;99974.69;5096349;28;20188;-85
2021/12/20 04:57:48;;;;;;;9.33;2.50;;;;;;;4.01;100.00;99973.16;5089833;28;20244;-84
2021/12/20 05:00:22;;;;;;;10.90;3.13;;;;;;;3.98;100.00;99975.84;5094914;28;20191;-84
2021/12/20 05:02:52;;;;;;;18.30;5.50;;;;;;;3.91;100.00;99976.91;5093131;28;20215;-86
2021/12/20 05:05:22;;;;;;;31.20;11.57;;;;;;;3.83;100.00;99971.81;5093263;28;20209;-84
2021/12/20 05:07:51;;;;;;;17.37;7.23;;;;;;;3.73;100.00;99978.19;5094576;28;20192;-84
2021/12/20 05:10:31;;;;;;;18.20;3.90;;;;;;;3.59;100.00;99985.50;5091735;28;20191;-84
2021/12/20 05:13:02;;;;;;;12.87;3.33;;;;;;;3.60;100.00;99985.47;5095937;28;20705;-83
2021/12/20 05:15:30;;;;;;;13.63;3.50;;;;;;;3.52;100.00;99990.00;5097347;28;20237;-84
2021/12/20 05:18:01;;;;;;;19.17;3.27;;;;;;;3.45;100.00;99988.41;5094374;28;20195;-84
2021/12/20 05:20:30;;;;;;;9.50;2.63;;;;;;;3.47;100.00;99996.22;5095585;28;20202;-83
2021/12/20 05:22:59;;;;;;;15.20;3.30;;;;;;;3.44;100.00;99997.16;5094436;28;20215;-84
2021/12/20 05:25:28;;;;;;;14.43;3.57;;;;;;;3.41;100.00;99998.09;5091246;28;20200;-84
2021/12/20 05:27:56;;;;;;;13.77;3.27;;;;;;;3.38;100.00;99995.56;5093007;28;20188;-83
2021/12/20 05:30:25;;;;;;;10.73;3.07;;;;;;;3.35;100.00;100003.44;5089981;28;20210;-83
2021/12/20 05:32:53;;;;;;;11.00;2.90;;;;;;;3.34;100.00;100001.72;5094840;28;20199;-84
2021/12/20 05:35:23;;;;;;;12.67;3.30;;;;;;;3.33;100.00;100004.38;5093097;28;20203;-84
2021/12/20 05:37:52;;;;;;;15.70;3.97;;;;;;;3.21;100.00;100009.88;5096352;27;20227;-84
2021/12/20 05:40:21;;;;;;;12.57;4.40;;;;;;;3.23;100.00;100008.09;5091723;28;20200;-83
2021/12/20 05:42:51;;;;;;;13.43;3.80;;;;;;;3.20;100.00;100002.94;5094958;28;20223;-83
2021/12/20 05:45:20;;;;;;;16.60;4.37;;;;;;;3.13;100.00;100013.50;5097349;27;20252;-84
2021/12/20 05:47:49;;;;;;;14.10;3.20;;;;;;;3.17;100.00;100024.75;5091891;28;20199;-84
2021/12/20 05:50:20;;;;;;;14.03;3.23;;;;;;;3.06;100.00;100016.28;5094600;28;20251;-85
2021/12/20 05:52:50;;;;;;;12.10;3.03;;;;;;;2.97;100.00;100029.53;5093252;28;20217;-84
2021/12/20 05:55:19;;;;;;;19.30;3.43;;;;;;;2.98;100.00;100033.88;5091525;28;20522;-84
2021/12/20 05:57:48;;;;;;;14.23;3.30;;;;;;;2.93;100.00;100030.50;5097063;28;20196;-84
2021/12/20 06:00:19;;;;;;;16.17;4.07;;;;;;;2.99;100.00;100039.09;5094732;28;20199;-84
2021/12/20 06:02:50;;;;;;;15.63;3.10;;;;;;;2.88;100.00;100026.19;5096761;28;20341;-84
2021/12/20 06:05:19;;;;;;;15.00;3.30;;;;;;;2.72;100.00;100035.25;5095990;28;20188;-84
2021/12/20 06:07:49;;;;;;;15.87;3.67;;;;;;;2.81;100.00;100037.69;5095995;28;20195;-84
2021/12/20 06:10:20;;;;;;;11.03;2.93;;;;;;;2.69;100.00;100040.50;5099749;28;20207;-84
2021/12/20 06:12:48;;;;;;;9.47;3.00;;;;;;;2.71;100.00;100049.22;5090888;28;20188;-84
2021/12/20 06:15:17;;;;;;;12.20;2.90;;;;;;;2.50;100.00;100049.56;5091706;28;20206;-84
2021/12/20 06:17:45;;;;;;;15.63;3.53;;;;;;;2.49;100.00;100051.31;5100464;27;20210;-83
2021/12/20 06:20:15;;;;;;;15.07;3.80;;;;;;;2.51;100.00;100059.13;5098018;28;20191;-84
2021/12/20 06:22:43;;;;;;;16.00;4.60;;;;;;;2.43;100.00;100055.78;5091341;28;20217;-84
2021/12/20 06:25:14;;;;;;;14.60;3.90;;;;;;;2.53;100.00;100050.38;5095313;28;20199;-84
2021/12/20 06:27:43;;;;;;;15.80;4.40;;;;;;;2.50;100.00;100053.03;5094688;28;20192;-84
2021/12/20 06:30:13;;;;;;;16.03;3.40;;;;;;;2.45;100.00;100054.88;5093267;28;20190;-84
2021/12/20 06:32:44;;;;;;;17.53;3.33;;;;;;;2.36;100.00;100054.16;5089432;28;20191;-84
2021/12/20 06:35:32;;;;;;;9.97;2.87;;;;;;;2.26;100.00;100056.91;5095144;28;20211;-84
2021/12/20 06:38:03;;;;;;;12.83;3.53;;;;;;;2.10;100.00;100071.09;5096524;28;20242;-83
2021/12/20 06:40:34;;;;;;;13.53;3.33;;;;;;;2.12;100.00;100065.84;5094341;28;20188;-84
2021/12/20 06:43:04;;;;;;;18.33;3.70;;;;;;;2.18;100.00;100073.59;5089761;28;20208;-84
2021/12/20 06:45:33;;;;;;;8.77;2.93;;;;;;;2.18;100.00;100071.00;5091493;28;20203;-83
2021/12/20 06:48:01;;;;;;;15.80;3.63;;;;;;;2.16;100.00;100068.41;5091479;28;20203;-84
2021/12/20 06:50:30;;;;;;;10.83;3.20;;;;;;;2.21;100.00;100079.63;5092129;28;20273;-84
2021/12/20 06:52:58;;;;;;;14.43;3.90;;;;;;;2.14;100.00;100077.16;5088880;28;20651;-84
2021/12/20 06:55:27;;;;;;;17.03;3.70;;;;;;;2.19;100.00;100072.72;5093476;28;20203;-86
2021/12/20 06:57:56;;;;;;;17.07;3.90;;;;;;;2.09;100.00;100082.44;5093951;28;20192;-84
2021/12/20 07:00:26;;;;;;;15.73;3.47;;;;;;;2.10;100.00;100083.31;5087613;28;20203;-84
2021/12/20 07:02:55;;;;;;;13.80;4.07;;;;;;;2.07;100.00;100081.59;5096699;28;20219;-84
2021/12/20 07:05:24;;;;;;;11.23;4.87;;;;;;;2.13;100.00;100073.69;5094095;28;20204;-84
2021/12/20 07:07:53;;;;;;;17.67;6.03;;;;;;;2.03;100.00;100074.72;5092588;28;20214;-84
2021/12/20 07:10:22;;;;;;;14.53;4.37;;;;;;;2.00;100.00;100077.34;5090595;28;20199;-84
2021/12/20 07:12:52;;;;;;;14.23;3.90;;;;;;;1.89;100.00;100080.13;5088576;28;20200;-85
2021/12/20 07:15:23;;;;;;;16.67;3.80;;;;;;;1.95;100.00;100089.63;5087974;28;20195;-85
2021/12/20 07:17:51;;;;;;;11.23;3.40;;;;;;;1.86;100.00;100088.00;5030264;28;20235;-84
2021/12/20 07:20:21;;;;;;;14.37;4.60;;;;;;;1.93;100.00;100086.16;5025298;28;20198;-85
2021/12/20 07:22:55;;;;;;;17.43;4.03;;;;;;;1.95;100.00;100089.63;5026396;28;20213;-84
2021/12/20 07:25:24;;;;;;;15.73;3.83;;;;;;;1.92;100.00;100098.34;5019059;28;20228;-84
2021/12/20 07:27:54;;;;;;;22.50;3.97;;;;;;;1.88;100.00;100090.59;4969372;28;20192;-84
2021/12/20 07:30:24;;;;;;;21.03;4.37;;;;;;;1.81;100.00;100092.41;4979581;28;20665;-85
2021/12/20 07:32:54;;;;;;;18.10;4.07;;;;;;;1.74;100.00;100098.63;4990002;28;20201;-84
2021/12/20 07:35:23;;;;;;;20.27;12.17;;;;;;;1.79;100.00;100104.63;5000361;28;20308;-85
2021/12/20 07:37:54;;;;;;;30.47;20.03;;;;;;;1.78;100.00;100105.53;5050337;28;20221;-85
2021/12/20 07:40:22;;;;;;;28.03;12.90;;;;;;;1.72;100.00;100106.44;5047799;28;20204;-84
2021/12/20 07:42:51;;;;;;;26.40;10.83;;;;;;;1.77;100.00;100101.19;5047115;28;20324;-86
2021/12/20 07:45:21;;;;;;;21.23;8.73;;;;;;;1.82;100.00;100109.81;5055824;28;20196;-85
2021/12/20 07:47:52;;;;;;;27.27;7.83;;;;;;;1.89;100.00;100110.59;5085414;28;20200;-85
2021/12/20 07:50:22;;;;;;;24.17;7.33;;;;;;;1.97;100.00;100113.97;5091073;28;20210;-85
2021/12/20 07:52:51;;;;;;;21.57;7.63;;;;;;;2.00;100.00;100124.38;5094356;28;20195;-84
2021/12/20 07:55:20;;;;;;;14.03;7.00;;;;;;;2.01;100.00;100120.88;5094286;28;20699;-85
2021/12/20 07:57:50;;;;;;;20.70;6.13;;;;;;;2.01;100.00;100121.72;5093082;28;20183;-85
2021/12/20 08:00:19;;;;;;;16.40;6.23;;;;;;;2.15;100.00;100118.94;5086029;28;20260;-85
2021/12/20 08:02:47;;;;;;;14.83;5.43;;;;;;;2.17;100.00;100109.31;5088892;28;20215;-85
2021/12/20 08:05:19;;;;;;;18.83;5.70;;;;;;;2.18;100.00;100115.41;5096452;28;20218;-85
2021/12/20 08:07:50;;;;;;;21.73;4.97;;;;;;;2.24;100.00;100118.81;5095368;28;20214;-85
2021/12/20 08:10:19;;;;;;;17.40;5.80;;;;;;;2.11;100.00;100122.47;5096402;28;20219;-85
2021/12/20 08:12:48;;;;;;;22.37;7.03;;;;;;;2.18;100.00;100121.50;5094631;28;20199;-85
2021/12/20 08:15:17;;;;;;;24.30;9.10;;;;;;;2.15;100.00;100118.09;5095435;28;20184;-85
2021/12/20 08:17:47;;;;;;;21.67;6.80;;;;;;;1.85;100.00;100122.84;5094809;28;20210;-85
2021/12/20 08:20:17;;;;;;;21.00;7.07;;;;;;;1.52;100.00;100125.84;5096550;28;20706;-85
2021/12/20 08:22:47;;;;;;;17.30;5.23;;;;;;;1.45;100.00;100132.91;5096002;28;20196;-85
2021/12/20 08:25:18;;;;;;;13.27;4.37;;;;;;;1.64;100.00;100134.44;5093643;28;20204;-85
2021/12/20 08:27:47;;;;;;;17.03;4.90;;;;;;;1.42;100.00;100128.56;5095536;28;20192;-85
2021/12/20 08:30:15;;;;;;;223.77;107.87;;;;;;;1.32;100.00;100129.56;5101797;28;20199;-85
2021/12/20 08:32:44;;;;;;;607.73;322.83;;;;;;;1.60;100.00;100144.91;5094172;28;20187;-84
2021/12/20 08:35:14;;;;;;;210.30;98.73;;;;;;;1.92;100.00;100140.16;5090433;28;20202;-86
2021/12/20 08:37:44;;;;;;;305.53;146.97;;;;;;;2.21;100.00;100141.50;5092546;28;20191;-86
2021/12/20 08:40:16;;;;;;;36.33;13.47;;;;;;;2.45;100.00;100146.38;5099915;27;20196;-86
2021/12/20 08:42:45;;;;;;;22.30;8.00;;;;;;;2.59;100.00;100133.94;5095188;28;20221;-86
2021/12/20 08:45:15;;;;;;;21.27;6.43;;;;;;;2.70;100.00;100138.13;5096803;28;20196;-85
2021/12/20 08:47:48;;;;;;;15.40;5.43;;;;;;;2.71;100.00;100140.75;5096144;28;20743;-85
2021/12/20 08:50:18;;;;;;;19.90;5.70;;;;;;;2.72;100.00;100146.84;5095934;28;20234;-85
2021/12/20 08:52:49;;;;;;;17.70;4.70;;;;;;;2.78;100.00;100142.34;5090657;28;20199;-85
2021/12/20 08:55:18;;;;;;;21.00;5.07;;;;;;;2.83;100.00;100144.91;5096789;28;20196;-86
2021/12/20 08:57:47;;;;;;;18.27;5.00;;;;;;;3.13;100.00;100147.00;5093918;28;20203;-85
2021/12/20 09:00:20;;;;;;;17.00;5.40;;;;;;;3.23;100.00;100147.69;5097440;28;20188;-84
2021/12/20 09:02:49;;;;;;;19.90;5.00;;;;;;;3.41;100.00;100152.59;5096554;28;20207;-85
2021/12/20 09:05:18;;;;;;;19.77;7.13;;;;;;;3.45;100.00;100145.53;5096969;28;20212;-85
2021/12/20 09:07:49;;;;;;;23.30;9.27;;;;;;;3.51;100.00;100155.03;5094048;28;20214;-85
2021/12/20 09:10:18;;;;;;;36.37;22.97;;;;;;;3.63;100.00;100152.16;5093638;28;20195;-84
2021/12/20 09:12:47;;;;;;;53.10;28.60;;;;;;;3.80;100.00;100157.06;5088849;28;20195;-84
2021/12/20 09:15:18;;;;;;;29.60;15.30;;;;;;;4.07;100.00;100155.66;5095013;28;20218;-84
2021/12/20 09:17:48;;;;;;;27.50;13.37;;;;;;;4.28;100.00;100153.41;5091898;28;20204;-84
2021/12/20 09:20:20;;;;;;;25.20;12.27;;;;;;;4.47;100.00;100155.63;5094620;28;20203;-84
2021/12/20 09:22:52;;;;;;;22.80;7.87;;;;;;;4.68;100.00;100154.25;5090342;28;20192;-84
2021/12/20 09:25:22;;;;;;;19.50;5.97;;;;;;;4.92;100.00;100153.63;5090605;28;20234;-84
2021/12/20 09:27:55;;;;;;;17.97;5.80;;;;;;;4.98;100.00;100160.50;5096004;28;20203;-84
2021/12/20 09:30:29;;;;;;;11.83;5.60;;;;;;;5.22;100.00;100156.41;5095756;28;20207;-84
2021/12/20 09:33:01;;;;;;;13.97;5.33;;;;;;;5.18;100.00;100147.72;5077892;28;20199;-84
2021/12/20 09:35:30;;;;;;;18.70;5.70;;;;;;;5.07;100.00;100155.88;5098743;28;20258;-84
2021/12/20 09:38:08;;;;;;;15.83;6.10;;;;;;;5.36;100.00;100149.88;5090791;28;20215;-84
2021/12/20 09:40:39;;;;;;;19.87;5.73;;;;;;;5.55;100.00;100154.63;5094050;28;20206;-83
2021/12/20 09:43:14;;;;;;;15.50;5.67;;;;;;;5.53;100.00;100156.44;5089643;28;20210;-83
2021/12/20 09:45:46;;;;;;;20.83;5.17;;;;;;;5.60;100.00;100156.25;5069817;28;20220;-84
2021/12/20 09:48:14;;;;;;;17.17;5.70;;;;;;;5.60;100.00;100160.63;5068025;28;20198;-84
2021/12/20 09:50:43;;;;;;;12.33;5.00;;;;;;;5.53;100.00;100162.56;5072031;28;20651;-84
2021/12/20 09:53:14;;;;;;;13.67;4.03;;;;;;;5.52;100.00;100166.09;5066944;28;20188;-84
2021/12/20 09:55:46;;;;;;;16.37;3.87;;;;;;;5.53;100.00;100166.94;5072910;28;20234;-83
2021/12/20 09:58:15;;;;;;;17.13;3.73;;;;;;;5.42;100.00;100169.88;5070399;28;20263;-83
2021/12/20 10:00:45;;;;;;;14.53;3.77;;;;;;;5.57;100.00;100164.19;5075528;28;20196;-84
2021/12/20 10:03:14;;;;;;;18.53;4.63;;;;;;;5.74;100.00;100161.97;5071235;28;20204;-84
2021/12/20 10:05:42;;;;;;;15.47;4.10;;;;;;;5.80;100.00;100165.34;5093988;28;20226;-84
2021/12/20 10:08:14;;;;;;;16.17;3.90;;;;;;;5.95;100.00;100155.25;5095493;27;20211;-84
2021/12/20 10:10:47;;;;;;;14.10;4.10;;;;;;;5.74;100.00;100158.47;5091168;28;20198;-83
2021/12/20 10:13:23;;;;;;;15.83;3.83;;;;;;;5.55;100.00;100160.75;5093355;28;20188;-84
2021/12/20 10:15:52;;;;;;;12.10;3.57;;;;;;;5.84;100.00;100157.31;5094445;28;20252;-84
2021/12/20 10:18:20;;;;;;;16.53;3.90;;;;;;;5.94;100.00;100156.16;5089035;28;20199;-83
2021/12/20 10:20:52;;;;;;;17.23;3.67;;;;;;;6.05;100.00;100155.84;5095228;27;20192;-84
2021/12/20 10:23:22;;;;;;;16.50;4.00;;;;;;;6.00;100.00;100160.41;5093021;28;20233;-83
2021/12/20 10:25:54;;;;;;;17.23;3.97;;;;;;;6.07;100.00;100155.78;5092632;28;20223;-84
2021/12/20 10:28:34;;;;;;;12.57;4.37;;;;;;;6.29;100.00;100149.88;5094749;28;20282;-83
2021/12/20 10:31:07;;;;;;;17.73;4.03;;;;;;;6.21;100.00;100149.22;5089277;28;20198;-84
2021/12/20 10:33:36;;;;;;;14.90;4.40;;;;;;;6.17;100.00;100144.94;5112698;28;20693;-83
2021/12/20 10:36:06;;;;;;;12.00;3.80;;;;;;;6.40;100.00;100148.66;5105999;28;20199;-83
2021/12/20 10:38:38;;;;;;;16.13;3.90;;;;;;;6.37;100.00;100149.63;5107246;28;20226;-83
2021/12/20 10:41:12;;;;;;;13.20;4.30;;;;;;;6.42;100.00;100147.72;5108717;28;20223;-84
2021/12/20 10:43:48;;;;;;;15.27;4.30;;;;;;;6.31;100.00;100149.81;5109777;28;20198;-84
2021/12/20 10:46:22;;;;;;;13.23;4.00;;;;;;;6.34;100.00;100135.69;5110685;28;20240;-84
2021/12/20 10:48:53;;;;;;;11.63;3.83;;;;;;;6.36;100.00;100142.63;5109722;28;20196;-83
2021/12/20 10:51:25;;;;;;;12.17;4.10;;;;;;;6.74;100.00;100136.13;5100407;28;20642;-84
2021/12/20 10:53:59;;;;;;;17.10;4.07;;;;;;;6.55;100.00;100142.91;5094260;28;20700;-83
2021/12/20 10:56:33;;;;;;;18.13;4.27;;;;;;;7.13;100.00;100138.34;5097575;28;20195;-83
2021/12/20 10:59:12;;;;;;;12.90;3.10;;;;;;;7.02;100.00;100137.88;5095152;28;20271;-84
2021/12/20 11:02:41;;;;;;;12.57;2.60;;;;;;;7.60;100.00;100134.06;5057436;28;20243;-84
2021/12/20 11:04:56;;;;;;;10.00;2.67;;;;;;;7.97;100.00;100133.56;5051317;28;20282;-84
2021/12/20 11:10:12;;;;;;;8.67;2.20;;;;;;;8.39;100.00;100129.34;5061093;28;20204;-83
2021/12/20 11:12:45;;;;;;;15.23;2.83;;;;;;;8.57;100.00;100125.97;5045312;28;20197;-84
2021/12/20 11:15:14;;;;;;;7.47;1.97;;;;;;;8.80;100.00;100130.34;5051896;28;20197;-84
2021/12/20 11:17:45;;;;;;;11.23;2.47;;;;;;;8.68;100.00;100122.91;5053393;28;20188;-84
2021/12/20 11:20:18;;;;;;;10.87;2.57;;;;;;;8.79;100.00;100116.28;5053667;28;20190;-83
2021/12/20 11:22:47;;;;;;;7.97;2.67;;;;;;;8.86;100.00;100120.38;5050232;28;20189;-84
2021/12/20 11:25:16;;;;;;;7.13;2.00;;;;;;;9.12;100.00;100119.28;5049945;28;20308;-83
2021/12/20 11:27:51;;;;;;;7.20;2.47;;;;;;;9.30;100.00;100115.00;5050285;28;20298;-84
2021/12/20 11:30:22;;;;;;;11.37;2.47;;;;;;;9.83;100.00;100113.53;5049205;28;20291;-83
2021/12/20 11:32:51;;;;;;;10.17;4.83;;;;;;;9.52;100.00;100114.06;5072869;28;20211;-83
2021/12/20 11:35:24;;;;;;;7.23;2.97;;;;;;;10.25;99.99;100113.38;5088579;28;20200;-84
2021/12/20 11:37:52;;;;;;;10.37;2.70;;;;;;;10.22;97.06;100109.06;5089898;28;20223;-83
2021/12/20 11:40:22;;;;;;;7.43;2.20;;;;;;;10.87;91.23;100112.09;5096603;28;20199;-84
2021/12/20 11:42:54;;;;;;;6.33;2.27;;;;;;;11.14;85.67;100108.06;5092826;28;20191;-84
2021/12/20 11:45:25;;;;;;;11.03;2.57;;;;;;;11.02;85.67;100100.75;5097153;28;20216;-84
2021/12/20 11:47:59;;;;;;;7.87;2.67;;;;;;;11.01;80.98;100095.53;5098339;28;20187;-83